createdAt,value
2022-10-03T00:02:30.399Z,63.20
2022-10-03T00:05:14.415Z,63.10
2022-10-03T00:07:55.276Z,63.20
2022-10-03T00:10:55.474Z,63.10
2022-10-03T00:13:48.460Z,63.20
2022-10-03T00:16:31.368Z,63.10
2022-10-03T00:19:27.490Z,63.20
2022-10-03T00:22:28.687Z,63.10
2022-10-03T00:25:16.313Z,63.20
2022-10-03T00:27:54.925Z,63.20
2022-10-03T00:30:26.977Z,63.20
2022-10-03T00:32:57.358Z,63.20
2022-10-03T00:35:34.162Z,63.20
2022-10-03T00:38:13.934Z,63.30
2022-10-03T00:41:05.914Z,63.20
2022-10-03T00:44:09.431Z,63.30
2022-10-03T00:46:57.603Z,63.20
2022-10-03T00:49:30.689Z,64.10
2022-10-03T00:52:06.722Z,63.30
2022-10-03T00:54:42.929Z,63.30
2022-10-03T00:57:54.094Z,63.20
2022-10-03T01:00:30.198Z,63.10
2022-10-03T01:03:24.660Z,63.30
2022-10-03T01:06:22.564Z,63.20
2022-10-03T01:09:29.331Z,63.20
2022-10-03T01:12:16.810Z,63.10
2022-10-03T01:15:34.228Z,63.20
2022-10-03T01:18:22.401Z,63.20
2022-10-03T01:20:57.244Z,63.10
2022-10-03T01:23:46.585Z,63.20
2022-10-03T01:26:46.633Z,63.10
2022-10-03T01:29:45.392Z,63.10
2022-10-03T01:32:15.481Z,63.10
2022-10-03T01:34:51.489Z,63.10
2022-10-03T01:37:24.527Z,63.00
2022-10-03T01:40:12.695Z,63.00
2022-10-03T01:42:55.075Z,63.00
2022-10-03T01:45:31.068Z,63.00
2022-10-03T01:48:10.489Z,63.00
2022-10-03T01:51:18.429Z,62.90
2022-10-03T01:54:06.682Z,62.80
2022-10-03T01:56:41.730Z,62.90
2022-10-03T01:59:31.475Z,63.00
2022-10-03T02:02:10.856Z,62.80
2022-10-03T02:04:50.352Z,62.90
2022-10-03T02:07:23.731Z,62.80
2022-10-03T02:10:08.727Z,62.70
2022-10-03T02:12:47.946Z,62.80
2022-10-03T02:15:58.436Z,62.80
2022-10-03T02:19:09.139Z,62.60
2022-10-03T02:21:50.634Z,62.60
2022-10-03T02:24:34.333Z,62.70
2022-10-03T02:27:29.161Z,62.60
2022-10-03T02:30:21.709Z,62.60
2022-10-03T02:33:12.719Z,62.50
2022-10-03T02:35:51.697Z,62.60
2022-10-03T02:38:37.437Z,62.60
2022-10-03T02:41:10.733Z,62.50
2022-10-03T02:43:49.744Z,62.60
2022-10-03T02:46:38.037Z,62.50
2022-10-03T02:49:46.442Z,62.50
2022-10-03T02:52:34.722Z,62.30
2022-10-03T02:55:25.955Z,62.50
2022-10-03T02:58:32.338Z,62.50
2022-10-03T03:01:39.180Z,62.40
2022-10-03T03:04:21.574Z,62.30
2022-10-03T03:07:12.656Z,62.50
2022-10-03T03:10:10.121Z,62.50
2022-10-03T03:13:13.366Z,62.40
2022-10-03T03:16:15.822Z,62.30
2022-10-03T03:19:01.205Z,62.30
2022-10-03T03:21:37.672Z,62.50
2022-10-03T03:24:32.636Z,62.50
2022-10-03T03:27:08.681Z,62.70
2022-10-03T03:29:57.537Z,62.70
2022-10-03T03:32:58.050Z,62.70
2022-10-03T03:35:45.196Z,62.80
2022-10-03T03:38:42.123Z,62.90
2022-10-03T03:41:40.177Z,62.90
2022-10-03T03:44:27.295Z,62.90
2022-10-03T03:47:00.381Z,62.90
2022-10-03T03:49:51.821Z,62.90
2022-10-03T03:52:49.140Z,62.90
2022-10-03T03:55:50.243Z,62.90
2022-10-03T03:58:41.494Z,62.90
2022-10-03T04:01:35.204Z,63.00
2022-10-03T04:04:17.628Z,63.00
2022-10-03T04:07:03.096Z,63.10
2022-10-03T04:09:52.199Z,62.90
2022-10-03T04:12:35.052Z,63.00
2022-10-03T04:15:26.593Z,63.00
2022-10-03T04:18:34.902Z,62.90
2022-10-03T04:21:34.097Z,63.00
2022-10-03T04:24:13.722Z,63.00
2022-10-03T04:27:20.136Z,63.10
2022-10-03T04:30:08.057Z,63.10
2022-10-03T04:33:07.178Z,63.10
2022-10-03T04:36:08.091Z,63.10
2022-10-03T04:38:53.196Z,63.10
2022-10-03T04:41:43.171Z,63.10
2022-10-03T04:44:34.753Z,63.20
2022-10-03T04:47:24.892Z,63.10
2022-10-03T04:50:14.097Z,63.10
2022-10-03T04:53:14.515Z,63.10
2022-10-03T04:55:46.431Z,62.90
2022-10-03T04:58:52.663Z,63.00
2022-10-03T05:01:28.776Z,62.90
2022-10-03T05:04:20.024Z,62.80
2022-10-03T05:07:08.966Z,62.70
2022-10-03T05:10:19.146Z,62.70
2022-10-03T05:13:20.406Z,62.60
2022-10-03T05:16:17.961Z,62.50
2022-10-03T05:18:57.676Z,62.60
2022-10-03T05:22:02.967Z,62.50
2022-10-03T05:24:36.392Z,62.60
2022-10-03T05:27:26.196Z,62.60
2022-10-03T05:30:16.282Z,62.60
2022-10-03T05:32:49.531Z,62.60
2022-10-03T05:36:01.512Z,62.70
2022-10-03T05:39:02.186Z,62.60
2022-10-03T05:41:38.696Z,62.90
2022-10-03T05:44:22.171Z,63.30
2022-10-03T05:47:33.763Z,63.30
2022-10-03T05:50:31.220Z,63.40
2022-10-03T05:53:10.232Z,63.60
2022-10-03T05:56:02.497Z,63.70
2022-10-03T05:58:44.309Z,63.80
2022-10-03T06:01:25.432Z,63.80
2022-10-03T06:04:17.415Z,64.00
2022-10-03T06:07:15.883Z,64.00
2022-10-03T06:09:59.665Z,64.00
2022-10-03T06:13:09.988Z,64.00
2022-10-03T06:16:03.742Z,64.20
2022-10-03T06:18:48.478Z,64.20
2022-10-03T06:21:59.811Z,64.40
2022-10-03T06:25:06.653Z,64.40
2022-10-03T06:28:07.030Z,64.50
2022-10-03T06:30:40.039Z,64.60
2022-10-03T06:33:28.656Z,64.50
2022-10-03T06:36:34.322Z,64.60
2022-10-03T06:39:40.974Z,64.80
2022-10-03T06:42:32.401Z,64.80
2022-10-03T06:45:02.485Z,64.80
2022-10-03T06:47:53.017Z,64.80
2022-10-03T06:50:26.565Z,65.10
2022-10-03T06:53:27.005Z,65.10
2022-10-03T06:56:12.669Z,65.20
2022-10-03T06:58:53.355Z,65.20
2022-10-03T07:01:32.508Z,65.20
2022-10-03T07:04:40.988Z,65.30
2022-10-03T07:07:55.419Z,65.40
2022-10-03T07:10:31.749Z,65.50
2022-10-03T07:13:30.242Z,65.40
2022-10-03T07:16:27.778Z,65.80
2022-10-03T07:19:17.020Z,65.90
2022-10-03T07:22:00.939Z,65.70
2022-10-03T07:24:58.410Z,65.30
2022-10-03T07:28:03.255Z,65.20
2022-10-03T07:30:57.889Z,65.20
2022-10-03T07:33:52.506Z,65.10
2022-10-03T07:36:50.111Z,65.00
2022-10-03T07:39:45.757Z,65.00
2022-10-03T07:42:29.582Z,64.90
2022-10-03T07:45:24.738Z,64.80
2022-10-03T07:48:21.111Z,64.70
2022-10-03T07:51:01.048Z,64.70
2022-10-03T07:54:07.553Z,64.70
2022-10-03T07:57:05.937Z,64.60
2022-10-03T08:00:07.098Z,64.40
2022-10-03T08:03:14.538Z,64.40
2022-10-03T08:06:03.691Z,64.30
2022-10-03T08:09:10.675Z,64.70
2022-10-03T08:12:02.684Z,64.30
2022-10-03T08:14:56.434Z,64.30
2022-10-03T08:18:04.849Z,64.20
2022-10-03T08:20:47.034Z,64.30
2022-10-03T08:23:25.901Z,64.30
2022-10-03T08:26:20.160Z,64.20
2022-10-03T08:29:26.441Z,64.10
2022-10-03T08:32:14.982Z,64.00
2022-10-03T08:34:48.286Z,64.30
2022-10-03T08:37:42.877Z,64.30
2022-10-03T08:40:55.207Z,64.00
2022-10-03T08:43:50.619Z,64.00
2022-10-03T08:46:39.000Z,64.10
2022-10-03T08:49:09.396Z,64.10
2022-10-03T08:52:31.591Z,64.10
2022-10-03T08:55:32.858Z,63.90
2022-10-03T08:58:30.989Z,64.00
2022-10-03T09:01:07.720Z,64.00
2022-10-03T09:04:05.370Z,64.10
2022-10-03T09:07:16.086Z,63.90
2022-10-03T09:10:19.218Z,63.90
2022-10-03T09:13:13.003Z,64.00
2022-10-03T09:16:17.583Z,63.90
2022-10-03T09:19:17.655Z,64.00
2022-10-03T09:22:09.169Z,64.10
2022-10-03T09:25:22.756Z,64.00
2022-10-03T09:28:25.966Z,64.00
2022-10-03T09:31:19.570Z,64.00
2022-10-03T09:33:58.904Z,64.00
2022-10-03T09:36:53.187Z,64.00
2022-10-03T09:39:56.303Z,64.00
2022-10-03T09:42:32.864Z,64.00
2022-10-03T09:45:34.607Z,64.00
2022-10-03T09:48:39.928Z,63.90
2022-10-03T09:51:43.942Z,63.90
2022-10-03T09:54:45.560Z,64.00
2022-10-03T09:57:40.532Z,64.00
2022-10-03T10:00:24.227Z,64.00
2022-10-03T10:03:05.849Z,64.00
2022-10-03T10:05:54.127Z,64.00
2022-10-03T10:08:58.733Z,64.00
2022-10-03T10:11:54.813Z,64.00
2022-10-03T10:14:49.110Z,63.90
2022-10-03T10:17:28.224Z,64.10
2022-10-03T10:20:45.963Z,64.00
2022-10-03T10:23:22.729Z,63.90
2022-10-03T10:26:17.133Z,64.00
2022-10-03T10:29:27.359Z,64.00
2022-10-03T10:32:33.833Z,63.80
2022-10-03T10:35:04.129Z,63.90
2022-10-03T10:37:46.253Z,64.10
2022-10-03T10:40:52.746Z,64.00
2022-10-03T10:43:47.714Z,63.90
2022-10-03T10:46:54.429Z,64.00
2022-10-03T10:49:54.899Z,63.90
2022-10-03T10:53:13.949Z,63.90
2022-10-03T10:56:02.279Z,63.80
2022-10-03T10:59:03.568Z,63.90
2022-10-03T11:02:16.818Z,63.90
2022-10-03T11:05:00.195Z,63.90
2022-10-03T11:08:06.944Z,64.00
2022-10-03T11:11:27.793Z,63.90
2022-10-03T11:14:11.680Z,63.90
2022-10-03T11:17:02.940Z,64.10
2022-10-03T11:20:00.857Z,63.90
2022-10-03T11:23:30.915Z,63.90
2022-10-03T11:26:19.827Z,63.80
2022-10-03T11:29:07.746Z,63.90
2022-10-03T11:32:14.531Z,64.00
2022-10-03T11:35:03.171Z,63.80
2022-10-03T11:37:43.099Z,64.00
2022-10-03T11:40:34.406Z,63.90
2022-10-03T11:44:01.910Z,63.90
2022-10-03T11:46:41.377Z,63.90
2022-10-03T11:49:37.426Z,64.10
2022-10-03T11:52:46.189Z,64.00
2022-10-03T11:55:31.322Z,64.00
2022-10-03T11:58:01.457Z,64.10
2022-10-03T12:00:35.408Z,65.00
2022-10-03T12:03:31.745Z,64.20
2022-10-03T12:06:36.516Z,64.00
2022-10-03T12:09:18.513Z,64.20
2022-10-03T12:12:00.639Z,64.10
2022-10-03T12:14:32.464Z,64.10
2022-10-03T12:17:17.527Z,64.20
2022-10-03T12:20:04.043Z,64.10
2022-10-03T12:22:43.939Z,64.10
2022-10-03T12:25:35.159Z,64.20
2022-10-03T12:28:09.036Z,64.10
2022-10-03T12:30:53.631Z,64.10
2022-10-03T12:33:30.975Z,64.00
2022-10-03T12:36:13.141Z,64.10
2022-10-03T12:39:01.568Z,64.00
2022-10-03T12:42:11.519Z,64.00
2022-10-03T12:44:48.103Z,64.00
2022-10-03T12:47:51.106Z,64.20
2022-10-03T12:50:31.902Z,64.20
2022-10-03T12:53:20.637Z,64.10
2022-10-03T12:56:10.320Z,64.00
2022-10-03T12:59:05.771Z,64.20
2022-10-03T13:01:35.969Z,64.20
2022-10-03T13:04:27.259Z,64.20
2022-10-03T13:07:18.000Z,64.20
2022-10-03T13:10:22.428Z,64.20
2022-10-03T13:13:04.499Z,64.30
2022-10-03T13:16:06.194Z,64.30
2022-10-03T13:18:39.918Z,64.20
2022-10-03T13:24:33.975Z,64.30
2022-10-03T13:27:39.717Z,64.30
2022-10-03T13:30:22.377Z,64.30
2022-10-03T13:32:55.256Z,64.30
2022-10-03T13:36:07.239Z,64.30
2022-10-03T13:38:56.799Z,64.20
2022-10-03T13:41:35.387Z,64.30
2022-10-03T13:44:37.025Z,64.10
2022-10-03T13:47:15.838Z,64.00
2022-10-03T13:49:58.448Z,64.10
2022-10-03T13:53:02.794Z,64.00
2022-10-03T13:55:57.504Z,63.90
2022-10-03T13:58:46.896Z,63.80
2022-10-03T14:01:30.275Z,63.90
2022-10-03T14:04:27.880Z,63.90
2022-10-03T14:07:01.625Z,63.60
2022-10-03T14:09:49.676Z,63.70
2022-10-03T14:12:57.641Z,63.50
2022-10-03T14:15:47.533Z,63.40
2022-10-03T14:18:43.399Z,63.50
2022-10-03T14:21:35.148Z,63.50
2022-10-03T14:24:18.146Z,63.40
2022-10-03T14:26:54.571Z,63.30
2022-10-03T14:29:58.455Z,63.30
2022-10-03T14:32:47.270Z,63.10
2022-10-03T14:35:40.799Z,63.30
2022-10-03T14:38:24.751Z,63.20
2022-10-03T14:41:04.921Z,63.20
2022-10-03T14:44:01.240Z,63.20
2022-10-03T14:46:36.220Z,62.90
2022-10-03T14:49:25.204Z,63.10
2022-10-03T14:52:08.594Z,63.10
2022-10-03T14:54:41.402Z,63.00
2022-10-03T14:58:06.034Z,63.00
2022-10-03T15:00:47.469Z,62.80
2022-10-03T15:03:23.677Z,63.00
2022-10-03T15:06:00.334Z,62.90
2022-10-03T15:08:42.321Z,62.90
2022-10-03T15:11:16.836Z,62.80
2022-10-03T15:13:57.232Z,62.90
2022-10-03T15:16:28.409Z,62.80
2022-10-03T15:19:07.115Z,62.90
2022-10-03T15:21:38.672Z,62.80
2022-10-03T15:24:14.610Z,62.80
2022-10-03T15:26:51.606Z,62.70
2022-10-03T15:29:25.569Z,62.70
2022-10-03T15:31:59.709Z,62.80
2022-10-03T15:35:03.415Z,62.70
2022-10-03T15:37:47.480Z,62.60
2022-10-03T15:40:41.720Z,62.70
2022-10-03T15:43:37.006Z,62.60
2022-10-03T15:46:21.383Z,62.50
2022-10-03T15:48:56.351Z,62.60
2022-10-03T15:51:29.706Z,62.70
2022-10-03T15:54:03.946Z,62.70
2022-10-03T15:56:44.084Z,62.70
2022-10-03T15:59:45.188Z,62.60
2022-10-03T16:02:43.794Z,62.60
2022-10-03T16:05:23.465Z,62.60
2022-10-03T16:08:03.211Z,62.70
2022-10-03T16:10:41.745Z,62.70
2022-10-03T16:13:20.945Z,62.70
2022-10-03T16:16:19.435Z,62.70
2022-10-03T16:18:53.500Z,62.50
2022-10-03T16:22:05.853Z,62.70
2022-10-03T16:24:42.950Z,62.60
2022-10-03T16:27:26.326Z,62.70
2022-10-03T16:30:20.204Z,62.60
2022-10-03T16:32:55.934Z,62.50
2022-10-03T16:35:49.274Z,62.70
2022-10-03T16:38:50.670Z,62.60
2022-10-03T16:41:33.425Z,62.60
2022-10-03T16:44:24.775Z,62.70
2022-10-03T16:47:01.248Z,62.60
2022-10-03T16:50:12.222Z,62.70
2022-10-03T16:52:45.911Z,62.70
2022-10-03T16:55:27.788Z,62.80
2022-10-03T16:58:07.913Z,62.60
2022-10-03T17:01:33.917Z,62.70
2022-10-03T17:04:31.449Z,62.50
2022-10-03T17:07:30.685Z,62.70
2022-10-03T17:10:04.882Z,62.70
2022-10-03T17:12:44.518Z,62.70
2022-10-03T17:15:25.356Z,62.70
2022-10-03T17:18:07.409Z,62.70
2022-10-03T17:20:43.663Z,62.70
2022-10-03T17:23:35.315Z,62.70
2022-10-03T17:26:16.065Z,62.70
2022-10-03T17:29:04.494Z,62.70
2022-10-03T17:31:41.479Z,62.80
2022-10-03T17:34:22.696Z,62.80
2022-10-03T17:37:18.344Z,62.80
2022-10-03T17:39:58.688Z,62.70
2022-10-03T17:42:33.092Z,62.70
2022-10-03T17:45:18.829Z,62.80
2022-10-03T17:48:00.389Z,62.80
2022-10-03T17:50:52.899Z,62.80
2022-10-03T17:53:35.930Z,62.80
2022-10-03T17:56:25.941Z,62.80
2022-10-03T17:59:08.331Z,62.80
2022-10-03T18:01:44.582Z,62.80
2022-10-03T18:04:37.838Z,62.80
2022-10-03T18:07:29.254Z,62.70
2022-10-03T18:09:59.723Z,62.70
2022-10-03T18:12:41.617Z,63.00
2022-10-03T18:15:42.797Z,62.80
2022-10-03T18:18:38.846Z,62.80
2022-10-03T18:21:29.886Z,62.80
2022-10-03T18:24:02.889Z,63.60
2022-10-03T18:27:22.023Z,63.00
2022-10-03T18:30:07.451Z,62.80
2022-10-03T18:32:41.315Z,63.00
2022-10-03T18:35:22.674Z,63.00
2022-10-03T18:38:04.849Z,63.00
2022-10-03T18:41:03.572Z,63.00
2022-10-03T18:44:01.646Z,63.00
2022-10-03T18:46:41.939Z,63.00
2022-10-03T18:49:33.842Z,63.10
2022-10-03T18:52:32.087Z,63.00
2022-10-03T18:55:17.056Z,63.10
2022-10-03T18:57:56.811Z,63.10
2022-10-03T19:00:33.034Z,63.20
2022-10-03T19:03:17.065Z,63.10
2022-10-03T19:05:56.036Z,63.10
2022-10-03T19:08:48.958Z,63.10
2022-10-03T19:11:49.415Z,63.80
2022-10-03T19:14:35.884Z,63.00
2022-10-03T19:17:08.765Z,63.10
2022-10-03T19:19:59.325Z,63.30
2022-10-03T19:23:09.867Z,63.10
2022-10-03T19:25:43.346Z,63.00
2022-10-03T19:28:29.191Z,63.20
2022-10-03T19:31:09.698Z,63.20
2022-10-03T19:33:54.400Z,63.20
2022-10-03T19:36:29.063Z,63.10
2022-10-03T19:39:01.333Z,63.20
2022-10-03T19:41:31.723Z,63.20
2022-10-03T19:44:20.401Z,63.20
2022-10-03T19:47:08.371Z,63.10
2022-10-03T19:50:03.037Z,63.20
2022-10-03T19:52:35.734Z,63.20
2022-10-03T19:55:19.606Z,63.40
2022-10-03T19:57:55.191Z,63.20
2022-10-03T20:00:34.391Z,63.20
2022-10-03T20:03:09.967Z,63.20
2022-10-03T20:05:48.897Z,63.20
2022-10-03T20:08:27.574Z,63.20
2022-10-03T20:11:23.553Z,63.20
2022-10-03T20:13:55.966Z,63.20
2022-10-03T20:16:31.631Z,63.40
2022-10-03T20:19:27.170Z,63.40
2022-10-03T20:21:59.855Z,63.20
2022-10-03T20:24:34.279Z,63.40
2022-10-03T20:27:22.267Z,63.40
2022-10-03T20:30:28.231Z,63.20
2022-10-03T20:33:01.329Z,63.20
2022-10-03T20:35:46.598Z,63.50
2022-10-03T20:38:25.483Z,63.40
2022-10-03T20:41:07.467Z,63.50
2022-10-03T20:43:57.815Z,63.40
2022-10-03T20:46:37.389Z,63.40
2022-10-03T20:49:17.319Z,63.50
2022-10-03T20:51:56.668Z,63.60
2022-10-03T20:54:31.134Z,63.40
2022-10-03T20:57:40.646Z,63.50
2022-10-03T21:00:25.959Z,63.40
2022-10-03T21:03:18.035Z,63.50
2022-10-03T21:05:54.548Z,63.60
2022-10-03T21:08:38.990Z,63.60
2022-10-03T21:11:25.806Z,63.60
2022-10-03T21:14:18.724Z,63.70
2022-10-03T21:16:53.244Z,63.60
2022-10-03T21:19:40.011Z,63.80
2022-10-03T21:22:14.524Z,63.80
2022-10-03T21:24:44.662Z,63.80
2022-10-03T21:27:18.254Z,63.90
2022-10-03T21:30:15.759Z,63.90
2022-10-03T21:33:03.236Z,63.90
2022-10-03T21:35:39.545Z,64.00
2022-10-03T21:38:34.037Z,64.30
2022-10-03T21:41:33.347Z,64.80
2022-10-03T21:44:37.221Z,65.10
2022-10-03T21:47:29.123Z,65.80
2022-10-03T21:50:25.067Z,66.00
2022-10-03T21:53:40.360Z,68.00
2022-10-03T21:56:21.205Z,67.80
2022-10-03T21:59:12.165Z,66.90
2022-10-03T22:02:07.009Z,67.20
2022-10-03T22:04:51.900Z,68.50
2022-10-03T22:07:43.175Z,67.90
2022-10-03T22:10:27.151Z,67.90
2022-10-03T22:13:09.963Z,68.30
2022-10-03T22:15:52.805Z,68.10
2022-10-03T22:18:32.275Z,68.20
2022-10-03T22:21:33.884Z,67.60
2022-10-03T22:24:36.372Z,67.60
2022-10-03T22:27:49.537Z,67.80
2022-10-03T22:30:30.642Z,67.30
2022-10-03T22:33:19.205Z,67.20
2022-10-03T22:35:51.284Z,67.20
2022-10-03T22:38:41.741Z,67.20
2022-10-03T22:41:21.442Z,67.20
2022-10-03T22:43:53.262Z,67.10
2022-10-03T22:46:34.452Z,67.00
2022-10-03T22:49:46.877Z,67.00
2022-10-03T22:52:33.400Z,67.10
2022-10-03T22:55:05.913Z,66.90
2022-10-03T22:57:36.898Z,67.30
2022-10-03T23:00:12.586Z,67.00
2022-10-03T23:02:59.720Z,66.80
2022-10-03T23:06:07.693Z,66.80
2022-10-03T23:08:56.142Z,66.80
2022-10-03T23:11:35.333Z,66.70
2022-10-03T23:14:37.127Z,66.80
2022-10-03T23:17:15.854Z,67.30
2022-10-03T23:20:03.379Z,66.70
2022-10-03T23:22:36.274Z,66.60
2022-10-03T23:25:19.755Z,66.50
2022-10-03T23:27:53.122Z,66.40
2022-10-03T23:30:26.327Z,66.40
2022-10-03T23:32:58.528Z,66.20
2022-10-03T23:35:38.034Z,66.50
2022-10-03T23:38:33.414Z,66.00
2022-10-03T23:41:12.216Z,66.10
2022-10-03T23:43:57.029Z,65.80
2022-10-03T23:46:30.480Z,65.90
2022-10-03T23:49:03.583Z,65.80
2022-10-03T23:51:39.008Z,65.60
2022-10-03T23:54:13.563Z,65.50
2022-10-03T23:56:52.011Z,65.80
2022-10-03T23:59:28.071Z,65.30
